createdAt,value
2023-02-24T00:00:38.720Z,3.00
2023-02-24T00:03:10.922Z,1.92
2023-02-24T00:05:44.553Z,2.92
2023-02-24T00:08:14.076Z,2.25
2023-02-24T00:10:42.984Z,2.78
2023-02-24T00:13:13.225Z,2.70
2023-02-24T00:15:41.376Z,2.83
2023-02-24T00:18:10.516Z,3.47
2023-02-24T00:20:38.804Z,1.75
2023-02-24T00:23:09.773Z,2.53
2023-02-24T00:25:39.658Z,2.20
2023-02-24T00:28:08.787Z,1.75
2023-02-24T00:30:37.046Z,1.92
2023-02-24T00:33:06.661Z,1.67
2023-02-24T00:35:35.713Z,2.05
2023-02-24T00:38:03.767Z,1.70
2023-02-24T00:40:32.385Z,1.80
2023-02-24T00:43:02.326Z,1.65
2023-02-24T00:45:34.129Z,2.65
2023-02-24T00:48:04.569Z,1.75
2023-02-24T00:50:33.177Z,1.90
2023-02-24T00:53:01.693Z,2.05
2023-02-24T00:55:36.213Z,1.90
2023-02-24T00:58:07.538Z,1.65
2023-02-24T01:00:37.379Z,2.03
2023-02-24T01:03:07.068Z,1.70
2023-02-24T01:05:37.889Z,2.60
2023-02-24T01:08:06.047Z,2.38
2023-02-24T01:10:35.535Z,1.55
2023-02-24T01:13:02.927Z,1.58
2023-02-24T01:15:32.475Z,1.80
2023-02-24T01:18:00.486Z,2.40
2023-02-24T01:20:30.540Z,2.08
2023-02-24T01:22:58.702Z,1.85
2023-02-24T01:25:31.507Z,1.90
2023-02-24T01:27:59.677Z,1.85
2023-02-24T01:30:28.674Z,1.95
2023-02-24T01:33:00.612Z,1.80
2023-02-24T01:35:31.601Z,2.05
2023-02-24T01:38:01.917Z,1.73
2023-02-24T01:40:30.056Z,1.90
2023-02-24T01:42:58.265Z,1.45
2023-02-24T01:45:28.953Z,1.48
2023-02-24T01:48:05.268Z,1.77
2023-02-24T01:50:36.874Z,1.60
2023-02-24T01:53:08.370Z,1.33
2023-02-24T01:55:41.867Z,1.50
2023-02-24T01:58:20.045Z,1.38
2023-02-24T02:00:48.935Z,1.40
2023-02-24T02:03:25.188Z,1.55
2023-02-24T02:05:56.285Z,1.20
2023-02-24T02:08:27.068Z,1.27
2023-02-24T02:10:59.071Z,1.40
2023-02-24T02:13:29.501Z,1.27
2023-02-24T02:16:06.960Z,1.40
2023-02-24T02:18:48.023Z,1.50
2023-02-24T02:21:48.468Z,1.40
2023-02-24T02:24:37.757Z,1.65
2023-02-24T02:27:58.317Z,1.40
2023-02-24T02:30:55.369Z,1.95
2023-02-24T02:34:00.250Z,1.13
2023-02-24T02:36:34.362Z,1.10
2023-02-24T02:39:13.201Z,1.45
2023-02-24T02:41:53.066Z,1.20
2023-02-24T02:44:26.259Z,1.58
2023-02-24T02:47:00.441Z,1.23
2023-02-24T02:52:07.554Z,1.73
2023-02-24T02:54:45.507Z,1.42
2023-02-24T02:57:21.519Z,1.38
2023-02-24T02:59:57.579Z,1.73
2023-02-24T03:02:31.746Z,1.33
2023-02-24T03:05:09.555Z,1.55
2023-02-24T03:07:42.944Z,1.52
2023-02-24T03:10:21.096Z,2.75
2023-02-24T03:12:52.842Z,1.30
2023-02-24T03:15:23.519Z,1.20
2023-02-24T03:17:56.948Z,1.80
2023-02-24T03:20:32.990Z,1.13
2023-02-24T03:23:04.716Z,1.42
2023-02-24T03:25:39.704Z,1.40
2023-02-24T03:28:17.316Z,1.60
2023-02-24T03:30:50.636Z,1.30
2023-02-24T03:33:24.203Z,1.40
2023-02-24T03:35:54.018Z,1.73
2023-02-24T03:38:24.414Z,1.38
2023-02-24T03:40:53.664Z,2.92
2023-02-24T03:43:30.234Z,2.40
2023-02-24T03:46:01.193Z,1.50
2023-02-24T03:48:31.187Z,1.52
2023-02-24T03:51:04.044Z,1.02
2023-02-24T03:53:51.344Z,1.17
2023-02-24T03:56:30.998Z,1.23
2023-02-24T03:59:14.538Z,1.13
2023-02-24T04:01:51.848Z,1.48
2023-02-24T04:04:31.708Z,1.60
2023-02-24T04:07:15.074Z,2.38
2023-02-24T04:09:51.581Z,2.35
2023-02-24T04:12:26.847Z,2.30
2023-02-24T04:15:08.276Z,1.35
2023-02-24T04:17:42.556Z,1.20
2023-02-24T04:20:16.692Z,1.10
2023-02-24T04:22:55.225Z,1.35
2023-02-24T04:25:26.768Z,1.45
2023-02-24T04:27:59.247Z,1.40
2023-02-24T04:30:32.423Z,1.25
2023-02-24T04:33:00.729Z,1.50
2023-02-24T04:35:29.483Z,1.67
2023-02-24T04:37:59.725Z,1.13
2023-02-24T04:40:28.951Z,1.48
2023-02-24T04:42:57.049Z,1.20
2023-02-24T04:45:27.667Z,1.38
2023-02-24T04:48:00.799Z,1.48
2023-02-24T04:50:33.090Z,1.27
2023-02-24T04:53:06.905Z,1.65
2023-02-24T04:55:40.434Z,1.60
2023-02-24T04:58:11.089Z,1.48
2023-02-24T05:00:41.625Z,1.20
2023-02-24T05:03:12.536Z,1.42
2023-02-24T05:05:43.080Z,1.40
2023-02-24T05:08:15.802Z,1.60
2023-02-24T05:10:46.439Z,1.20
2023-02-24T05:13:16.568Z,1.17
2023-02-24T05:15:45.838Z,1.45
2023-02-24T05:18:17.391Z,1.45
2023-02-24T05:21:04.917Z,1.50
2023-02-24T05:23:39.243Z,1.30
2023-02-24T05:26:09.329Z,1.13
2023-02-24T05:28:38.025Z,1.83
2023-02-24T05:31:08.659Z,1.60
2023-02-24T05:33:38.741Z,1.38
2023-02-24T05:36:09.966Z,1.58
2023-02-24T05:38:39.933Z,1.55
2023-02-24T05:41:15.230Z,1.45
2023-02-24T05:43:48.102Z,1.70
2023-02-24T05:46:17.046Z,2.07
2023-02-24T05:48:45.179Z,1.77
2023-02-24T05:51:13.493Z,1.50
2023-02-24T05:53:43.318Z,1.60
2023-02-24T05:56:11.831Z,1.33
2023-02-24T05:58:40.294Z,1.55
2023-02-24T06:01:16.497Z,1.70
2023-02-24T06:03:47.883Z,1.70
2023-02-24T06:06:17.189Z,1.63
2023-02-24T06:08:50.594Z,1.50
2023-02-24T06:11:21.253Z,1.55
2023-02-24T06:13:49.651Z,1.08
2023-02-24T06:16:19.619Z,1.38
2023-02-24T06:18:50.829Z,1.42
2023-02-24T06:21:19.506Z,1.75
2023-02-24T06:23:49.310Z,1.50
2023-02-24T06:26:19.708Z,1.60
2023-02-24T06:28:49.837Z,1.55
2023-02-24T06:31:18.309Z,1.58
2023-02-24T06:33:46.635Z,2.15
2023-02-24T06:36:15.596Z,1.30
2023-02-24T06:38:44.417Z,1.88
2023-02-24T06:41:14.535Z,1.67
2023-02-24T06:43:44.642Z,1.80
2023-02-24T06:46:15.616Z,1.75
2023-02-24T06:48:44.112Z,1.90
2023-02-24T06:51:15.582Z,1.42
2023-02-24T06:53:44.905Z,1.65
2023-02-24T06:56:18.019Z,2.10
2023-02-24T06:58:50.749Z,1.33
2023-02-24T07:01:22.046Z,1.10
2023-02-24T07:04:18.050Z,2.05
2023-02-24T07:06:50.350Z,1.73
2023-02-24T07:09:20.634Z,1.77
2023-02-24T07:11:52.423Z,2.00
2023-02-24T07:14:23.044Z,1.73
2023-02-24T07:16:54.287Z,1.50
2023-02-24T07:19:25.629Z,1.70
2023-02-24T07:22:00.028Z,2.80
2023-02-24T07:24:36.190Z,1.90
2023-02-24T07:27:07.577Z,1.85
2023-02-24T07:29:38.194Z,1.52
2023-02-24T07:32:08.629Z,1.60
2023-02-24T07:34:40.571Z,2.45
2023-02-24T07:37:09.077Z,1.83
2023-02-24T07:39:39.139Z,2.20
2023-02-24T07:42:12.556Z,1.70
2023-02-24T07:44:49.014Z,2.08
2023-02-24T07:47:17.698Z,1.70
2023-02-24T07:49:46.008Z,1.80
2023-02-24T07:52:14.401Z,2.30
2023-02-24T07:54:43.360Z,2.20
2023-02-24T07:57:14.020Z,2.28
2023-02-24T07:59:47.817Z,1.90
2023-02-24T08:02:16.925Z,1.45
2023-02-24T08:04:50.501Z,2.65
2023-02-24T08:07:24.283Z,1.83
2023-02-24T08:10:14.581Z,2.22
2023-02-24T08:12:44.244Z,2.40
2023-02-24T08:15:24.389Z,2.50
2023-02-24T08:17:55.032Z,2.60
2023-02-24T08:20:26.170Z,2.15
2023-02-24T08:22:55.349Z,2.05
2023-02-24T08:25:35.900Z,2.08
2023-02-24T08:28:11.260Z,2.35
2023-02-24T08:30:46.156Z,2.40
2023-02-24T08:33:20.096Z,2.58
2023-02-24T08:35:53.038Z,2.42
2023-02-24T08:38:25.878Z,2.80
2023-02-24T08:40:58.772Z,2.80
2023-02-24T08:43:33.621Z,3.20
2023-02-24T08:46:12.706Z,3.33
2023-02-24T08:48:43.287Z,3.20
2023-02-24T08:51:16.020Z,3.28
2023-02-24T08:53:46.538Z,3.70
2023-02-24T08:56:24.548Z,3.83
2023-02-24T08:58:57.990Z,4.72
2023-02-24T09:01:34.975Z,4.88
2023-02-24T09:04:05.852Z,4.25
2023-02-24T09:06:43.582Z,4.20
2023-02-24T09:09:22.493Z,4.78
2023-02-24T09:11:56.202Z,4.88
2023-02-24T09:14:29.362Z,4.75
2023-02-24T09:17:07.336Z,5.03
2023-02-24T09:19:58.830Z,5.10
2023-02-24T09:22:49.282Z,5.45
2023-02-24T09:25:21.740Z,5.07
2023-02-24T09:27:57.240Z,5.47
2023-02-24T09:30:39.261Z,5.65
2023-02-24T09:33:18.223Z,5.63
2023-02-24T09:35:48.311Z,6.25
2023-02-24T09:38:20.276Z,7.00
2023-02-24T09:40:50.414Z,7.07
2023-02-24T09:43:21.982Z,8.02
2023-02-24T09:46:01.798Z,7.68
2023-02-24T09:48:44.112Z,8.25
2023-02-24T09:51:21.813Z,7.95
2023-02-24T09:53:56.833Z,8.63
2023-02-24T09:56:36.965Z,8.15
2023-02-24T09:59:13.452Z,10.07
2023-02-24T10:01:47.635Z,9.40
2023-02-24T10:04:49.491Z,8.65
2023-02-24T10:07:22.678Z,8.80
2023-02-24T10:09:54.646Z,9.10
2023-02-24T10:12:29.715Z,8.90
2023-02-24T10:15:18.258Z,8.88
2023-02-24T10:17:55.275Z,10.20
2023-02-24T10:20:31.340Z,9.48
2023-02-24T10:23:04.322Z,10.75
2023-02-24T10:25:54.988Z,9.85
2023-02-24T10:28:35.982Z,10.73
2023-02-24T10:31:25.665Z,12.23
2023-02-24T10:33:58.281Z,11.40
2023-02-24T10:36:35.795Z,11.30
2023-02-24T10:39:15.602Z,11.32
2023-02-24T10:41:47.275Z,11.38
2023-02-24T10:44:24.123Z,11.68
2023-02-24T10:47:11.736Z,11.90
2023-02-24T10:49:56.853Z,11.10
2023-02-24T10:52:51.176Z,12.43
2023-02-24T10:55:29.087Z,12.77
2023-02-24T10:58:07.008Z,11.52
2023-02-24T11:01:00.604Z,12.57
2023-02-24T11:03:41.993Z,11.53
2023-02-24T11:06:42.377Z,12.82
2023-02-24T11:09:32.410Z,13.98
2023-02-24T11:12:22.355Z,13.85
2023-02-24T11:15:11.176Z,13.70
2023-02-24T11:17:48.452Z,14.23
2023-02-24T11:20:24.763Z,15.23
2023-02-24T11:22:55.879Z,14.82
2023-02-24T11:25:26.981Z,15.18
2023-02-24T11:27:57.185Z,15.15
2023-02-24T11:30:38.511Z,17.15
2023-02-24T11:33:24.400Z,15.48
2023-02-24T11:36:05.441Z,15.95
2023-02-24T11:38:45.778Z,14.93
2023-02-24T11:41:23.596Z,14.73
2023-02-24T11:43:59.946Z,15.38
2023-02-24T11:46:39.590Z,15.25
2023-02-24T11:49:18.622Z,14.10
2023-02-24T11:51:47.588Z,12.82
2023-02-24T11:54:18.172Z,14.10
2023-02-24T11:56:50.201Z,12.95
2023-02-24T11:59:23.480Z,13.88
2023-02-24T12:02:00.398Z,13.10
2023-02-24T12:04:33.299Z,13.10
2023-02-24T12:07:08.430Z,11.25
2023-02-24T12:09:44.808Z,10.88
2023-02-24T12:12:17.915Z,9.88
2023-02-24T12:14:51.235Z,10.75
2023-02-24T12:17:27.232Z,11.63
2023-02-24T12:20:01.647Z,10.65
2023-02-24T12:22:35.337Z,10.73
2023-02-24T12:25:05.394Z,11.25
2023-02-24T12:27:46.614Z,9.30
2023-02-24T12:30:48.783Z,8.35
2023-02-24T12:33:32.879Z,9.18
2023-02-24T12:36:09.384Z,8.60
2023-02-24T12:38:50.773Z,9.25
2023-02-24T12:41:36.997Z,8.48
2023-02-24T12:44:17.393Z,9.25
2023-02-24T12:46:52.106Z,7.13
2023-02-24T12:49:34.706Z,8.40
2023-02-24T12:52:13.812Z,7.75
2023-02-24T12:54:47.982Z,7.10
2023-02-24T12:57:23.794Z,7.93
2023-02-24T12:59:52.901Z,8.27
2023-02-24T13:02:28.215Z,7.38
2023-02-24T13:05:03.383Z,8.32
2023-02-24T13:07:53.981Z,8.60
2023-02-24T13:10:32.209Z,8.63
2023-02-24T13:13:10.184Z,9.48
2023-02-24T13:15:38.820Z,7.65
2023-02-24T13:18:06.952Z,7.47
2023-02-24T13:20:37.573Z,7.22
2023-02-24T13:23:21.094Z,6.25
2023-02-24T13:25:53.453Z,6.45
2023-02-24T13:28:27.706Z,4.95
2023-02-24T13:31:00.895Z,3.53
2023-02-24T13:33:32.703Z,3.30
2023-02-24T13:36:14.262Z,3.00
2023-02-24T13:38:44.783Z,2.65
2023-02-24T13:41:40.631Z,3.03
2023-02-24T13:44:28.538Z,2.78
2023-02-24T13:47:45.179Z,3.40
2023-02-24T13:50:21.053Z,4.00
2023-02-24T13:53:18.047Z,3.58
2023-02-24T13:56:13.470Z,3.25
2023-02-24T13:58:57.075Z,2.95
2023-02-24T14:01:30.770Z,3.17
2023-02-24T14:04:16.284Z,2.35
2023-02-24T14:06:49.504Z,2.20
2023-02-24T14:09:22.785Z,1.70
2023-02-24T14:11:56.104Z,1.83
2023-02-24T14:14:26.197Z,1.50
2023-02-24T14:16:55.704Z,1.60
2023-02-24T14:19:26.605Z,2.17
2023-02-24T14:21:56.358Z,1.98
2023-02-24T14:24:27.586Z,2.80
2023-02-24T14:26:57.598Z,2.88
2023-02-24T14:29:32.060Z,2.53
2023-02-24T14:32:03.013Z,3.35
2023-02-24T14:34:33.920Z,2.95
2023-02-24T14:37:04.772Z,3.50
2023-02-24T14:39:35.018Z,3.10
2023-02-24T14:42:12.753Z,3.28
2023-02-24T14:44:43.978Z,3.85
2023-02-24T14:47:15.477Z,3.95
2023-02-24T14:49:52.623Z,3.40
2023-02-24T14:52:34.462Z,4.00
2023-02-24T14:55:06.906Z,4.03
2023-02-24T14:57:39.400Z,4.00
2023-02-24T15:00:17.376Z,3.00
2023-02-24T15:02:52.548Z,2.70
2023-02-24T15:05:21.018Z,1.90
2023-02-24T15:07:51.668Z,5.25
2023-02-24T15:10:23.957Z,2.10
2023-02-24T15:12:55.042Z,1.40
2023-02-24T15:15:27.117Z,1.30
2023-02-24T15:17:59.107Z,1.10
2023-02-24T15:20:34.177Z,1.15
2023-02-24T15:23:03.303Z,1.30
2023-02-24T15:25:42.251Z,2.38
2023-02-24T15:28:25.689Z,1.98
2023-02-24T15:31:18.223Z,1.95
2023-02-24T15:33:56.453Z,1.50
2023-02-24T15:36:28.286Z,1.58
2023-02-24T15:38:59.677Z,1.50
2023-02-24T15:41:38.626Z,1.92
2023-02-24T15:44:06.966Z,0.77
2023-02-24T15:46:36.793Z,1.63
2023-02-24T15:49:07.247Z,0.50
2023-02-24T15:51:38.641Z,0.65
2023-02-24T15:54:09.570Z,2.58
2023-02-24T15:56:37.862Z,1.80
2023-02-24T15:59:06.214Z,1.73
2023-02-24T16:01:35.207Z,1.63
2023-02-24T16:04:04.616Z,0.95
2023-02-24T16:06:36.098Z,0.88
2023-02-24T16:09:05.678Z,0.80
2023-02-24T16:11:39.303Z,1.55
2023-02-24T16:14:07.466Z,1.38
2023-02-24T16:16:35.584Z,1.33
2023-02-24T16:19:04.016Z,1.02
2023-02-24T16:21:32.158Z,1.70
2023-02-24T16:24:01.814Z,2.08
2023-02-24T16:26:41.162Z,1.40
2023-02-24T16:29:15.342Z,1.98
2023-02-24T16:31:44.164Z,1.80
2023-02-24T16:34:16.197Z,2.40
2023-02-24T16:36:45.102Z,2.20
2023-02-24T16:39:15.083Z,2.00
2023-02-24T16:41:43.235Z,2.78
2023-02-24T16:44:11.757Z,2.38
2023-02-24T16:46:41.325Z,2.65
2023-02-24T16:49:14.685Z,3.50
2023-02-24T16:51:42.881Z,4.25
2023-02-24T16:54:10.942Z,2.45
2023-02-24T16:56:40.659Z,2.60
2023-02-24T16:59:08.776Z,3.28
2023-02-24T17:01:37.176Z,5.10
2023-02-24T17:04:09.998Z,3.75
2023-02-24T17:06:38.341Z,4.07
2023-02-24T17:09:06.484Z,4.38
2023-02-24T17:11:34.691Z,4.05
2023-02-24T17:14:04.467Z,4.00
2023-02-24T17:16:32.646Z,3.90
2023-02-24T17:19:00.806Z,4.28
2023-02-24T17:21:28.927Z,3.88
2023-02-24T17:23:56.914Z,3.95
2023-02-24T17:26:25.582Z,3.50
2023-02-24T17:28:53.591Z,4.40
2023-02-24T17:31:23.460Z,6.15
2023-02-24T17:33:51.735Z,5.00
2023-02-24T17:36:20.166Z,4.20
2023-02-24T17:38:48.460Z,5.25
2023-02-24T17:41:16.826Z,4.40
2023-02-24T17:43:44.853Z,4.28
2023-02-24T17:46:12.962Z,4.90
2023-02-24T17:48:42.591Z,4.40
2023-02-24T17:51:14.431Z,4.03
2023-02-24T17:53:42.936Z,4.18
2023-02-24T17:56:12.035Z,4.28
2023-02-24T17:58:40.371Z,4.85
2023-02-24T18:01:08.609Z,4.20
2023-02-24T18:03:38.096Z,4.93
2023-02-24T18:06:10.070Z,4.53
2023-02-24T18:08:39.467Z,4.75
2023-02-24T18:11:09.884Z,5.05
2023-02-24T18:13:38.176Z,5.53
2023-02-24T18:16:10.532Z,4.93
2023-02-24T18:18:38.828Z,5.10
2023-02-24T18:21:08.995Z,5.53
2023-02-24T18:23:40.222Z,5.03
2023-02-24T18:26:10.133Z,4.82
2023-02-24T18:28:38.486Z,4.97
2023-02-24T18:31:13.031Z,5.82
2023-02-24T18:33:41.334Z,4.82
2023-02-24T18:36:11.889Z,4.75
2023-02-24T18:38:40.335Z,5.53
2023-02-24T18:41:10.971Z,5.82
2023-02-24T18:43:39.449Z,4.55
2023-02-24T18:46:09.837Z,5.45
2023-02-24T18:48:40.034Z,5.35
2023-02-24T18:51:10.250Z,5.28
2023-02-24T18:53:38.717Z,5.05
2023-02-24T18:56:08.891Z,6.75
2023-02-24T19:01:27.847Z,5.57
2023-02-24T19:03:56.460Z,5.72
2023-02-24T19:06:27.566Z,5.47
2023-02-24T19:08:59.586Z,5.70
2023-02-24T19:11:28.179Z,7.00
2023-02-24T19:13:56.758Z,5.90
2023-02-24T19:16:25.837Z,6.63
2023-02-24T19:18:55.624Z,6.35
2023-02-24T19:21:26.416Z,6.18
2023-02-24T19:23:54.830Z,6.93
2023-02-24T19:26:25.043Z,6.10
2023-02-24T19:28:54.022Z,5.55
2023-02-24T19:31:23.981Z,6.35
2023-02-24T19:33:53.727Z,6.05
2023-02-24T19:36:22.721Z,6.85
2023-02-24T19:38:52.699Z,7.32
2023-02-24T19:41:20.774Z,5.72
2023-02-24T19:43:49.075Z,6.00
2023-02-24T19:46:17.830Z,5.43
2023-02-24T19:48:46.974Z,5.93
2023-02-24T19:51:17.526Z,5.85
2023-02-24T19:53:45.749Z,4.13
2023-02-24T19:56:15.342Z,5.07
2023-02-24T19:58:43.915Z,4.88
2023-02-24T20:01:14.000Z,4.50
2023-02-24T20:03:43.937Z,3.85
2023-02-24T20:06:18.587Z,4.57
2023-02-24T20:08:46.779Z,4.88
2023-02-24T20:11:18.254Z,4.03
2023-02-24T20:13:46.856Z,5.07
2023-02-24T20:16:16.963Z,4.22
2023-02-24T20:18:45.711Z,4.22
2023-02-24T20:21:14.612Z,4.97
2023-02-24T20:23:43.516Z,4.65
2023-02-24T20:26:16.422Z,4.40
2023-02-24T20:28:47.419Z,4.22
2023-02-24T20:31:19.829Z,4.35
2023-02-24T20:33:49.480Z,4.55
2023-02-24T20:36:19.860Z,3.88
2023-02-24T20:38:48.667Z,3.67
2023-02-24T20:41:17.306Z,4.28
2023-02-24T20:43:47.029Z,4.22
2023-02-24T20:46:17.919Z,5.13
2023-02-24T20:48:46.564Z,4.70
2023-02-24T20:51:14.625Z,4.68
2023-02-24T20:53:56.756Z,5.05
2023-02-24T20:56:27.174Z,4.55
2023-02-24T20:59:00.108Z,5.03
2023-02-24T21:01:29.666Z,5.03
2023-02-24T21:03:57.903Z,5.35
2023-02-24T21:06:27.544Z,5.97
2023-02-24T21:08:56.000Z,6.30
2023-02-24T21:11:25.069Z,5.68
2023-02-24T21:13:53.571Z,5.70
2023-02-24T21:16:24.429Z,7.00
2023-02-24T21:18:53.354Z,5.63
2023-02-24T21:21:22.038Z,6.35
2023-02-24T21:23:51.322Z,6.07
2023-02-24T21:26:20.358Z,5.82
2023-02-24T21:28:49.688Z,5.35
2023-02-24T21:31:20.254Z,5.90
2023-02-24T21:33:53.039Z,5.75
2023-02-24T21:36:25.510Z,5.63
2023-02-24T21:38:54.711Z,5.82
2023-02-24T21:41:23.599Z,5.28
2023-02-24T21:43:55.340Z,6.38
2023-02-24T21:46:27.944Z,5.35
2023-02-24T21:48:58.902Z,6.13
2023-02-24T21:51:29.163Z,5.72
2023-02-24T21:53:59.495Z,6.43
2023-02-24T21:56:29.360Z,5.80
2023-02-24T21:59:00.260Z,6.78
2023-02-24T22:01:31.054Z,6.20
2023-02-24T22:04:04.336Z,5.82
2023-02-24T22:06:33.827Z,7.10
2023-02-24T22:09:04.036Z,6.85
2023-02-24T22:11:35.348Z,7.72
2023-02-24T22:14:03.803Z,7.22
2023-02-24T22:16:31.934Z,6.88
2023-02-24T22:19:01.783Z,7.03
2023-02-24T22:21:30.667Z,6.22
2023-02-24T22:24:01.042Z,6.70
2023-02-24T22:26:32.042Z,6.07
2023-02-24T22:29:00.746Z,6.63
2023-02-24T22:31:32.087Z,6.72
2023-02-24T22:34:02.467Z,6.63
2023-02-24T22:36:33.392Z,7.10
2023-02-24T22:39:03.025Z,5.68
2023-02-24T22:41:33.147Z,6.05
2023-02-24T22:44:02.877Z,5.40
2023-02-24T22:46:32.727Z,4.93
2023-02-24T22:49:03.243Z,4.63
2023-02-24T22:51:31.325Z,6.88
2023-02-24T22:53:59.617Z,5.82
2023-02-24T22:56:29.824Z,4.97
2023-02-24T22:58:58.767Z,5.32
2023-02-24T23:01:28.817Z,4.18
2023-02-24T23:03:59.772Z,3.85
2023-02-24T23:06:30.159Z,4.00
2023-02-24T23:09:00.485Z,3.92
2023-02-24T23:11:31.142Z,3.03
2023-02-24T23:14:01.885Z,3.80
2023-02-24T23:16:32.279Z,2.63
2023-02-24T23:19:04.433Z,2.75
2023-02-24T23:21:37.822Z,2.83
2023-02-24T23:24:08.168Z,1.83
2023-02-24T23:26:38.252Z,2.28
2023-02-24T23:29:07.159Z,2.03
2023-02-24T23:31:35.932Z,2.20
2023-02-24T23:34:07.131Z,2.03
2023-02-24T23:36:37.688Z,2.17
2023-02-24T23:39:07.086Z,1.90
2023-02-24T23:41:35.927Z,1.75
2023-02-24T23:44:04.348Z,2.30
2023-02-24T23:46:33.660Z,2.60
2023-02-24T23:49:02.209Z,2.95
2023-02-24T23:51:45.740Z,2.28
2023-02-24T23:54:17.145Z,2.50
2023-02-24T23:56:46.747Z,3.45
2023-02-24T23:59:15.142Z,2.78
